Time;durP1;ratioP1;P1;durP2;ratioP2;P2;SDS_P1;SDS_P2;PMS_P1;PMS_P2;Temp;Humidity;BMP_temperature;BMP_pressure;BME280_temperature;BME280_humidity;BME280_pressure;Samples;Min_cycle;Max_cycle;Signal;HPM_P1;HPM_P2
2022/06/13 00:07:25;;;;;;;4.43;2.90;;;;;;;23.89;45.39;100369.97;20818146;27;99962;-74
2022/06/13 00:17:26;;;;;;;3.47;3.17;;;;;;;23.79;45.82;100356.75;20819925;27;99681;-74
2022/06/13 00:27:26;;;;;;;5.25;2.88;;;;;;;23.82;45.40;100359.13;20818067;27;98324;-73
2022/06/13 00:37:27;;;;;;;3.67;2.78;;;;;;;23.79;45.33;100362.03;20821918;27;97721;-74
2022/06/13 00:47:28;;;;;;;3.38;2.47;;;;;;;23.64;45.89;100345.72;20824685;27;100821;-73
2022/06/13 00:57:29;;;;;;;5.78;2.60;;;;;;;23.57;46.17;100332.22;20820447;27;103123;-74
2022/06/13 01:07:30;;;;;;;5.80;2.70;;;;;;;23.52;46.36;100325.69;20826143;27;100327;-74
2022/06/13 01:17:54;;;;;;;3.50;2.58;;;;;;;23.40;46.72;100320.50;20823692;27;97934;-75
2022/06/13 01:28:20;;;;;;;3.17;2.88;;;;;;;23.32;46.96;100313.25;20819697;27;98591;-74
2022/06/13 01:38:45;;;;;;;5.75;2.83;;;;;;;23.20;47.53;100311.69;20807381;27;100369;-74
2022/06/13 01:48:58;;;;;;;3.50;2.83;;;;;;;23.11;47.79;100310.66;20826986;27;98614;-74
2022/06/13 01:59:14;;;;;;;4.93;2.97;;;;;;;23.05;48.38;100303.25;20823074;27;97791;-74
2022/06/13 02:09:21;;;;;;;7.20;3.00;;;;;;;22.99;48.26;100290.59;20823238;27;98388;-74
2022/06/13 02:19:26;;;;;;;3.67;2.80;;;;;;;22.87;48.48;100295.13;20841243;27;98739;-75
2022/06/13 02:29:33;;;;;;;5.88;2.85;;;;;;;22.81;48.58;100296.50;20829999;27;97173;-74
2022/06/13 02:39:44;;;;;;;5.57;2.80;;;;;;;22.76;49.05;100297.84;20837763;27;101672;-74
2022/06/13 02:50:00;;;;;;;4.90;2.85;;;;;;;22.62;49.21;100293.72;20834968;27;100620;-74
2022/06/13 03:00:29;;;;;;;3.47;2.60;;;;;;;22.60;49.74;100293.88;20830086;27;96959;-74
2022/06/13 03:10:44;;;;;;;3.60;2.88;;;;;;;22.49;49.27;100289.50;20822591;27;99505;-74
2022/06/13 03:20:57;;;;;;;4.15;3.03;;;;;;;22.46;49.83;100291.56;20811520;27;98453;-74
2022/06/13 03:31:26;;;;;;;3.17;2.78;;;;;;;22.32;50.53;100280.34;20826715;27;100166;-74
2022/06/13 03:41:36;;;;;;;3.80;2.90;;;;;;;22.34;50.46;100281.06;20822169;27;98135;-74
2022/06/13 03:51:46;;;;;;;3.72;3.20;;;;;;;22.35;50.47;100281.88;20828708;27;98221;-74
2022/06/13 04:01:54;;;;;;;6.38;3.15;;;;;;;22.32;50.66;100287.44;20829554;27;100328;-74
2022/06/13 04:12:07;;;;;;;4.75;2.90;;;;;;;22.46;50.21;100284.50;20824674;27;99317;-74
2022/06/13 04:22:22;;;;;;;3.58;2.80;;;;;;;22.43;49.99;100278.66;20841337;27;99310;-75
2022/06/13 04:32:48;;;;;;;3.03;2.75;;;;;;;22.37;48.63;100282.59;20832552;27;98383;-81
2022/06/13 04:42:51;;;;;;;3.53;2.38;;;;;;;22.30;47.72;100284.06;20841494;27;102170;-78
2022/06/13 04:52:55;;;;;;;3.47;2.70;;;;;;;21.64;49.20;100282.44;20805411;27;97692;-79
2022/06/13 05:02:56;;;;;;;4.32;2.78;;;;;;;21.59;48.95;100288.06;20855049;27;98508;-80
2022/06/13 05:12:57;;;;;;;5.03;2.58;;;;;;;21.73;48.87;100284.34;20869917;27;98928;-79
2022/06/13 05:23:25;;;;;;;9.98;2.60;;;;;;;21.74;49.08;100273.66;20867923;27;97719;-80
2022/06/13 05:33:33;;;;;;;4.60;2.45;;;;;;;21.82;48.85;100283.56;20846397;27;97314;-81
2022/06/13 05:43:33;;;;;;;7.78;2.58;;;;;;;22.20;48.11;100284.88;20872045;27;100540;-81
2022/06/13 05:53:34;;;;;;;4.93;2.37;;;;;;;22.59;47.44;100280.81;20873435;27;98920;-81
2022/06/13 06:03:34;;;;;;;4.53;2.30;;;;;;;22.86;47.29;100278.44;20860313;27;99929;-81
2022/06/13 06:13:34;;;;;;;2.25;1.80;;;;;;;23.07;47.36;100282.00;20872583;27;97090;-80
2022/06/13 06:23:36;;;;;;;5.80;2.35;;;;;;;23.22;47.18;100272.75;20872614;27;97039;-81
2022/06/13 06:33:37;;;;;;;2.30;1.90;;;;;;;23.37;46.94;100277.66;20881313;27;98986;-81
2022/06/13 06:43:37;;;;;;;5.03;2.13;;;;;;;23.48;47.10;100269.63;20865795;27;97744;-81
2022/06/13 07:03:57;;;;;;;2.15;1.90;;;;;;;23.68;46.63;100267.84;20859337;27;96875;-81
2022/06/13 07:13:58;;;;;;;2.85;1.80;;;;;;;23.77;46.35;100268.81;20858920;27;97913;-81
2022/06/13 07:23:59;;;;;;;3.63;2.20;;;;;;;23.83;46.48;100263.78;20859561;27;96960;-82
2022/06/13 07:34:00;;;;;;;2.97;1.70;;;;;;;23.91;46.40;100262.25;20842674;27;97318;-82
2022/06/13 07:44:01;;;;;;;2.70;1.87;;;;;;;23.97;46.39;100267.00;20858924;27;97055;-82
2022/06/13 07:54:02;;;;;;;3.27;1.60;;;;;;;24.02;46.30;100264.78;20874335;27;97967;-82
2022/06/13 08:04:03;;;;;;;3.40;1.98;;;;;;;24.08;46.24;100260.75;20860955;27;97015;-82
2022/06/13 08:14:06;;;;;;;1.60;1.50;;;;;;;24.12;46.27;100244.47;20861937;27;96967;-81
2022/06/13 08:24:07;;;;;;;1.73;1.63;;;;;;;24.16;46.17;100234.44;20848843;27;97991;-82
2022/06/13 08:34:07;;;;;;;1.67;1.55;;;;;;;24.19;46.18;100236.78;20861489;27;97032;-82
2022/06/13 08:44:21;;;;;;;2.23;1.90;;;;;;;24.23;45.94;100226.75;20833208;27;97292;-82
2022/06/13 08:54:28;;;;;;;2.05;1.85;;;;;;;24.26;45.86;100219.34;20865983;27;97183;-82
2022/06/13 09:04:36;;;;;;;1.98;1.77;;;;;;;24.30;46.00;100218.09;20848940;27;97539;-82
2022/06/13 09:14:36;;;;;;;2.03;1.83;;;;;;;24.34;45.83;100201.94;20858158;27;100827;-81
2022/06/13 09:25:20;;;;;;;5.22;2.60;;;;;;;24.41;46.26;100193.28;20853998;27;97052;-82
2022/06/13 09:35:31;;;;;;;3.40;2.70;;;;;;;24.47;45.71;100181.25;20846314;27;99267;-82
2022/06/13 09:45:39;;;;;;;3.50;2.43;;;;;;;24.55;43.53;100170.78;20859055;27;99503;-82
2022/06/13 09:55:49;;;;;;;7.50;2.63;;;;;;;24.61;42.70;100156.13;20869402;27;99123;-82
2022/06/13 10:06:07;;;;;;;5.80;2.40;;;;;;;24.69;42.05;100137.72;20880404;27;100465;-80
2022/06/13 10:16:31;;;;;;;4.85;2.30;;;;;;;24.74;42.35;100131.97;20877487;27;97055;-81
2022/06/13 10:26:55;;;;;;;4.97;1.95;;;;;;;24.82;40.29;100115.38;20889658;27;97654;-81
2022/06/13 10:37:29;;;;;;;3.63;2.17;;;;;;;24.91;40.55;100109.16;20891447;27;97499;-81
2022/06/13 10:47:36;;;;;;;4.22;2.22;;;;;;;25.00;40.24;100096.81;20886903;27;96814;-80
2022/06/13 10:57:49;;;;;;;2.60;2.08;;;;;;;25.10;40.01;100090.47;20889029;27;97835;-80
2022/06/13 11:08:00;;;;;;;2.75;2.40;;;;;;;25.15;40.45;100075.94;20877229;27;97000;-80
2022/06/13 11:28:39;;;;;;;3.33;2.40;;;;;;;25.24;39.75;100041.41;20883099;27;97564;-80
2022/06/13 11:38:55;;;;;;;2.75;2.20;;;;;;;25.38;39.22;100039.22;20859364;27;98034;-80
2022/06/13 11:49:01;;;;;;;3.20;2.75;;;;;;;25.64;39.04;100020.63;20862008;27;97717;-83
2022/06/13 11:59:05;;;;;;;2.40;2.20;;;;;;;25.61;38.49;100023.63;20864617;27;97606;-82
2022/06/13 12:09:31;;;;;;;4.28;2.65;;;;;;;25.65;39.02;100030.25;20856652;27;97289;-82
2022/06/13 12:19:37;;;;;;;3.28;2.50;;;;;;;25.67;40.38;100011.53;20876190;27;97039;-82
2022/06/13 12:29:51;;;;;;;3.75;2.83;;;;;;;25.89;39.40;100003.03;20866581;27;98643;-82
2022/06/13 12:40:08;;;;;;;5.28;2.60;;;;;;;26.08;39.18;99987.88;20856536;27;99194;-82
2022/06/13 12:50:38;;;;;;;6.15;3.00;;;;;;;26.16;38.70;99968.50;20858798;27;101278;-80
2022/06/13 13:01:16;;;;;;;4.40;2.65;;;;;;;26.35;39.27;99962.06;20877736;27;100558;-80
2022/06/13 13:11:41;;;;;;;8.23;2.50;;;;;;;26.41;38.17;99960.59;20889299;27;98295;-84
2022/06/13 13:21:45;;;;;;;5.30;2.80;;;;;;;26.62;39.26;99965.41;20879627;27;99257;-82
2022/06/13 13:32:13;;;;;;;5.35;3.33;;;;;;;26.68;41.90;99970.06;20891982;27;97925;-81
2022/06/13 13:42:23;;;;;;;3.80;3.50;;;;;;;26.62;42.52;99986.66;20873840;27;97082;-78
2022/06/13 13:52:28;;;;;;;7.70;3.57;;;;;;;26.58;42.69;99978.19;20867559;27;97067;-80
2022/06/13 14:03:09;;;;;;;7.28;3.30;;;;;;;26.57;41.58;99973.88;20860185;27;98352;-79
2022/06/13 14:13:16;;;;;;;4.57;3.05;;;;;;;26.52;41.12;99969.06;20826252;27;97589;-76
2022/06/13 14:23:24;;;;;;;6.85;3.10;;;;;;;26.48;40.23;99966.91;20860212;27;98255;-79
2022/06/13 14:44:42;;;;;;;6.60;2.67;;;;;;;26.63;41.63;99962.59;20841517;27;97710;-79
2022/06/13 14:54:43;;;;;;;3.55;2.30;;;;;;;26.65;40.74;99967.75;20851703;27;98509;-78
2022/06/13 15:05:00;;;;;;;3.70;2.07;;;;;;;26.48;39.10;99966.91;20851308;27;98648;-78
2022/06/13 15:15:09;;;;;;;3.45;2.10;;;;;;;26.35;40.15;99973.53;20847561;27;96863;-78
2022/06/13 15:25:10;;;;;;;2.80;2.03;;;;;;;26.27;39.89;99984.13;20839253;27;100306;-80
2022/06/13 15:35:15;;;;;;;1.80;1.70;;;;;;;26.31;40.64;99977.47;20855510;27;99495;-78
2022/06/13 15:45:17;;;;;;;2.55;1.83;;;;;;;26.33;41.00;99982.63;20830900;27;101597;-79
2022/06/13 15:55:21;;;;;;;1.85;1.60;;;;;;;26.41;39.95;99974.69;20829978;27;98998;-80
2022/06/13 16:05:26;;;;;;;3.33;1.80;;;;;;;26.52;40.55;99969.06;20836004;27;99470;-78
2022/06/13 16:15:30;;;;;;;6.45;1.85;;;;;;;26.51;41.00;99962.09;20844453;27;98044;-80
2022/06/13 16:25:31;;;;;;;6.57;1.90;;;;;;;26.49;39.85;99973.88;20851077;27;96928;-81
2022/06/13 16:35:49;;;;;;;1.70;1.60;;;;;;;26.46;39.55;99969.69;20857954;27;97185;-80
2022/06/13 16:46:03;;;;;;;2.10;1.80;;;;;;;26.38;40.51;99967.06;20848122;27;97394;-80
2022/06/13 16:56:04;;;;;;;4.28;1.90;;;;;;;26.33;40.42;100009.16;20871928;27;97379;-81
2022/06/13 17:06:23;;;;;;;1.70;1.60;;;;;;;26.26;39.47;100014.31;20866678;27;97941;-81
2022/06/13 17:16:24;;;;;;;3.03;1.40;;;;;;;26.17;39.31;100021.41;20871593;27;100067;-82
2022/06/13 17:36:46;;;;;;;2.13;1.60;;;;;;;25.94;40.06;100042.34;20829933;27;100164;-78
2022/06/13 17:46:47;;;;;;;2.55;1.85;;;;;;;25.88;40.67;100048.28;20834289;27;98638;-78
2022/06/13 17:56:50;;;;;;;1.83;1.50;;;;;;;25.65;40.08;100055.97;20839199;27;97922;-76
2022/06/13 18:06:54;;;;;;;3.53;1.63;;;;;;;25.50;40.66;100132.56;20830811;27;100485;-78
2022/06/13 18:16:55;;;;;;;3.70;1.58;;;;;;;25.05;40.38;100134.31;20834961;27;98131;-77
2022/06/13 18:27:05;;;;;;;3.20;1.50;;;;;;;24.92;40.43;100142.59;20820379;27;100340;-77
2022/06/13 18:37:08;;;;;;;4.32;1.10;;;;;;;24.64;40.37;100163.78;20835501;27;97496;-79
2022/06/13 18:47:10;;;;;;;1.30;1.05;;;;;;;24.50;41.59;100157.16;20830696;27;98302;-78
2022/06/13 18:57:10;;;;;;;3.53;0.80;;;;;;;24.29;41.34;100176.75;20833012;27;97807;-87
2022/06/13 19:07:13;;;;;;;3.75;1.20;;;;;;;24.40;40.72;100204.00;20857544;27;97845;-85
2022/06/13 19:17:15;;;;;;;1.20;0.90;;;;;;;24.49;40.09;100257.91;20854699;27;96886;-79
2022/06/13 19:27:15;;;;;;;1.67;1.10;;;;;;;24.59;41.32;100282.50;20826251;27;98076;-77
2022/06/13 19:37:16;;;;;;;5.60;1.20;;;;;;;24.55;41.85;100263.44;20840207;27;100065;-79
2022/06/13 19:47:16;;;;;;;2.20;1.10;;;;;;;24.54;41.91;100258.28;20833167;27;97853;-78
2022/06/13 19:57:17;;;;;;;1.20;1.10;;;;;;;24.59;41.90;100295.75;20840810;27;97617;-75
2022/06/13 20:17:39;;;;;;;1.30;1.20;;;;;;;24.41;42.67;100330.06;20852818;27;98101;-75
2022/06/13 20:27:39;;;;;;;1.83;1.20;;;;;;;24.40;42.88;100317.78;20817718;27;99554;-76
2022/06/13 20:37:41;;;;;;;1.92;1.15;;;;;;;24.39;42.92;100329.34;20811788;27;99896;-76
2022/06/13 20:47:44;;;;;;;1.88;1.27;;;;;;;24.24;43.48;100336.88;20833165;27;98361;-75
2022/06/13 20:57:44;;;;;;;3.30;1.30;;;;;;;23.96;43.40;100342.03;20844387;27;97710;-75
2022/06/13 21:07:45;;;;;;;2.33;1.10;;;;;;;24.12;43.06;100344.97;20837632;27;97267;-76
2022/06/13 21:17:45;;;;;;;1.63;0.90;;;;;;;23.79;42.57;100354.94;20829908;27;98629;-76
2022/06/13 21:27:46;;;;;;;1.20;1.10;;;;;;;23.79;41.91;100369.97;20817424;27;98550;-75
2022/06/13 21:37:48;;;;;;;2.45;1.00;;;;;;;24.25;41.44;100378.25;20835403;27;97339;-77
2022/06/13 21:47:49;;;;;;;1.33;0.93;;;;;;;24.47;42.02;100382.41;20818934;27;99280;-77
2022/06/13 21:57:49;;;;;;;1.10;1.00;;;;;;;24.62;41.78;100373.06;20849914;27;99781;-78
2022/06/13 22:07:52;;;;;;;1.43;1.00;;;;;;;24.73;41.60;100373.91;20839085;27;101847;-77
2022/06/13 22:17:52;;;;;;;0.73;0.73;;;;;;;24.80;41.99;100395.38;20842667;27;97920;-77
2022/06/13 22:27:53;;;;;;;1.88;0.85;;;;;;;24.86;42.21;100398.28;20836363;27;98083;-78
2022/06/13 22:37:54;;;;;;;1.60;1.00;;;;;;;24.89;41.96;100410.38;20822657;27;97545;-77
2022/06/13 22:58:14;;;;;;;2.17;1.05;;;;;;;24.94;41.84;100418.75;20839142;27;98336;-77
2022/06/13 23:08:15;;;;;;;1.43;1.10;;;;;;;24.98;41.89;100422.78;20823809;27;97597;-78
2022/06/13 23:18:16;;;;;;;0.80;0.80;;;;;;;25.01;41.73;100435.75;20834994;27;98143;-78
2022/06/13 23:28:17;;;;;;;1.20;1.00;;;;;;;25.06;41.89;100448.56;20836902;27;101212;-78
2022/06/13 23:38:17;;;;;;;1.20;1.00;;;;;;;25.06;41.59;100453.84;20834265;27;99269;-78
2022/06/13 23:48:18;;;;;;;0.95;0.93;;;;;;;25.15;41.43;100455.66;20831028;27;100515;-78
2022/06/13 23:58:19;;;;;;;1.02;0.95;;;;;;;25.17;41.04;100448.41;20815266;27;97392;-77
